createdAt,value
2019-05-20T00:03:16.813Z,46.77
2019-05-20T00:08:22.258Z,46.97
2019-05-20T00:13:27.722Z,42.97
2019-05-20T00:18:33.252Z,41.90
2019-05-20T00:23:38.778Z,45.70
2019-05-20T00:28:44.277Z,44.50
2019-05-20T00:33:49.774Z,47.13
2019-05-20T00:39:14.117Z,43.87
2019-05-20T00:44:19.822Z,42.73
2019-05-20T00:49:25.306Z,51.97
2019-05-20T00:54:31.024Z,52.93
2019-05-20T00:59:36.568Z,50.27
2019-05-20T01:04:42.117Z,50.70
2019-05-20T01:09:47.531Z,52.73
2019-05-20T01:14:53.106Z,53.70
2019-05-20T01:19:58.565Z,50.97
2019-05-20T01:25:04.118Z,50.60
2019-05-20T01:30:09.852Z,53.40
2019-05-20T01:35:15.280Z,51.30
2019-05-20T01:40:20.818Z,60.77
2019-05-20T01:45:26.246Z,71.97
2019-05-20T01:50:31.756Z,75.03
2019-05-20T01:55:37.165Z,67.83
2019-05-20T02:00:42.655Z,68.07
2019-05-20T02:05:48.142Z,63.13
2019-05-20T02:10:56.522Z,60.27
2019-05-20T02:16:05.230Z,58.93
2019-05-20T02:21:10.714Z,55.90
2019-05-20T02:26:16.256Z,52.77
2019-05-20T02:31:21.840Z,49.07
2019-05-20T02:36:27.327Z,53.90
2019-05-20T02:41:32.791Z,51.47
2019-05-20T02:46:38.193Z,52.33
2019-05-20T02:51:43.655Z,49.33
2019-05-20T02:56:49.077Z,44.80
2019-05-20T03:01:54.563Z,42.90
2019-05-20T03:07:00.070Z,44.97
2019-05-20T03:12:05.539Z,45.37
2019-05-20T03:17:10.964Z,41.27
2019-05-20T03:22:16.400Z,40.33
2019-05-20T03:27:21.879Z,38.77
2019-05-20T03:32:27.313Z,39.57
2019-05-20T03:37:32.827Z,37.73
2019-05-20T03:42:38.277Z,35.50
2019-05-20T03:47:43.848Z,33.13
2019-05-20T03:52:49.319Z,30.57
2019-05-20T03:57:54.768Z,33.07
2019-05-20T04:03:00.220Z,31.93
2019-05-20T04:08:05.691Z,32.43
2019-05-20T04:13:11.151Z,33.27
2019-05-20T04:18:16.656Z,32.27
2019-05-20T04:23:22.080Z,32.97
2019-05-20T04:28:27.524Z,31.27
2019-05-20T04:33:32.958Z,35.20
2019-05-20T04:38:38.446Z,35.33
2019-05-20T04:43:43.886Z,33.57
2019-05-20T04:48:49.341Z,34.03
2019-05-20T04:53:56.757Z,33.03
2019-05-20T04:59:02.483Z,33.87
2019-05-20T05:04:08.025Z,32.80
2019-05-20T05:09:15.581Z,30.90
2019-05-20T05:14:20.662Z,30.87
2019-05-20T05:19:26.204Z,30.67
2019-05-20T05:24:31.663Z,28.03
2019-05-20T05:29:37.129Z,27.53
2019-05-20T05:34:42.730Z,29.43
2019-05-20T05:39:48.373Z,28.43
2019-05-20T05:44:54.078Z,26.90
2019-05-20T05:50:00.013Z,26.50
2019-05-20T05:55:05.476Z,26.67
2019-05-20T06:00:10.911Z,26.53
2019-05-20T06:05:16.420Z,27.40
2019-05-20T06:10:22.024Z,25.13
2019-05-20T06:15:27.601Z,22.97
2019-05-20T06:20:33.073Z,21.17
2019-05-20T06:25:38.716Z,22.13
2019-05-20T06:30:45.675Z,22.10
2019-05-20T06:35:51.101Z,20.47
2019-05-20T06:40:56.620Z,20.63
2019-05-20T06:46:02.136Z,21.30
2019-05-20T06:51:07.687Z,21.33
2019-05-20T06:56:13.166Z,20.80
2019-05-20T07:01:18.585Z,21.67
2019-05-20T07:06:24.052Z,22.37
2019-05-20T07:11:29.492Z,23.03
2019-05-20T07:16:35.114Z,23.00
2019-05-20T07:21:40.619Z,24.03
2019-05-20T07:26:46.171Z,22.30
2019-05-20T07:31:51.686Z,21.97
2019-05-20T07:37:03.054Z,24.80
2019-05-20T07:42:04.314Z,23.93
2019-05-20T07:47:11.101Z,22.67
2019-05-20T07:52:16.921Z,23.97
2019-05-20T07:57:22.662Z,21.73
2019-05-20T08:02:28.822Z,21.93
2019-05-20T08:07:50.565Z,21.90
2019-05-20T08:12:41.545Z,21.60
2019-05-20T08:17:46.965Z,20.57
2019-05-20T08:22:52.391Z,21.63
2019-05-20T08:27:57.931Z,21.87
2019-05-20T08:33:03.497Z,22.93
2019-05-20T08:38:08.990Z,21.63
2019-05-20T08:43:14.469Z,22.10
2019-05-20T08:48:20.053Z,22.40
2019-05-20T08:53:25.567Z,24.60
2019-05-20T08:58:31.088Z,24.23
2019-05-20T09:03:36.565Z,23.43
2019-05-20T09:08:42.010Z,23.97
2019-05-20T09:13:47.567Z,21.90
2019-05-20T09:18:53.130Z,22.80
2019-05-20T09:23:58.559Z,21.73
2019-05-20T09:29:04.024Z,24.27
2019-05-20T09:34:09.551Z,24.30
2019-05-20T09:39:15.086Z,25.50
2019-05-20T09:44:20.543Z,25.63
2019-05-20T09:49:26.207Z,27.43
2019-05-20T09:54:31.781Z,26.30
2019-05-20T09:59:43.256Z,26.17
2019-05-20T10:04:44.659Z,26.50
2019-05-20T10:09:50.109Z,27.23
2019-05-20T10:14:55.634Z,26.17
2019-05-20T10:20:01.386Z,24.67
2019-05-20T10:25:07.101Z,24.63
2019-05-20T10:30:12.710Z,27.07
2019-05-20T10:35:18.728Z,28.17
2019-05-20T10:40:24.259Z,27.77
2019-05-20T10:45:29.884Z,27.60
2019-05-20T10:50:35.394Z,27.53
2019-05-20T10:55:41.724Z,27.27
2019-05-20T11:01:01.665Z,27.30
2019-05-20T11:05:54.463Z,29.47
2019-05-20T11:10:59.981Z,29.33
2019-05-20T11:16:05.420Z,29.43
2019-05-20T11:21:10.898Z,27.23
2019-05-20T11:26:16.466Z,28.57
2019-05-20T11:31:22.119Z,27.30
2019-05-20T11:36:27.569Z,28.33
2019-05-20T11:41:52.880Z,29.63
2019-05-20T11:46:40.266Z,26.83
2019-05-20T11:51:45.679Z,28.63
2019-05-20T11:56:51.284Z,27.03
2019-05-20T12:01:57.195Z,27.13
2019-05-20T12:07:02.861Z,25.83
2019-05-20T12:12:08.358Z,26.33
2019-05-20T12:17:13.833Z,26.80
2019-05-20T12:22:19.367Z,27.23
2019-05-20T12:27:24.825Z,26.23
2019-05-20T12:32:30.390Z,28.03
2019-05-20T12:37:36.137Z,28.40
2019-05-20T12:42:41.626Z,27.13
2019-05-20T12:47:47.133Z,25.83
2019-05-20T12:52:52.574Z,26.57
2019-05-20T12:57:58.058Z,24.63
2019-05-20T13:03:03.506Z,24.73
2019-05-20T13:08:09.147Z,26.10
2019-05-20T13:13:14.773Z,28.57
2019-05-20T13:18:21.244Z,28.00
2019-05-20T13:23:26.784Z,28.13
2019-05-20T13:28:32.587Z,26.23
2019-05-20T13:33:38.341Z,28.03
2019-05-20T13:38:43.841Z,27.37
2019-05-20T13:43:49.330Z,28.07
2019-05-20T13:48:54.815Z,27.53
2019-05-20T13:54:00.372Z,28.53
2019-05-20T13:59:05.889Z,27.70
2019-05-20T14:04:11.588Z,27.70
2019-05-20T14:09:17.023Z,29.83
2019-05-20T14:14:22.529Z,28.63
2019-05-20T14:19:28.033Z,27.87
2019-05-20T14:24:33.520Z,27.67
2019-05-20T14:29:39.013Z,28.03
2019-05-20T14:34:44.546Z,28.20
2019-05-20T14:39:50.129Z,29.80
2019-05-20T14:44:55.759Z,29.77
2019-05-20T14:50:01.179Z,31.43
2019-05-20T14:55:06.873Z,31.27
2019-05-20T15:00:12.299Z,30.30
2019-05-20T15:05:17.718Z,31.53
2019-05-20T15:10:23.165Z,29.70
2019-05-20T15:15:28.669Z,31.50
2019-05-20T15:20:34.102Z,31.50
2019-05-20T15:25:39.584Z,30.83
2019-05-20T15:30:45.008Z,31.03
2019-05-20T15:35:50.413Z,28.67
2019-05-20T15:40:55.865Z,28.47
2019-05-20T15:46:01.319Z,28.50
2019-05-20T15:51:06.850Z,28.13
2019-05-20T15:56:12.297Z,29.10
2019-05-20T16:01:17.830Z,29.63
2019-05-20T16:06:23.308Z,29.53
2019-05-20T16:11:28.910Z,28.57
2019-05-20T16:16:34.446Z,28.37
2019-05-20T16:21:40.230Z,30.27
2019-05-20T16:26:45.759Z,27.03
2019-05-20T16:31:51.495Z,27.17
2019-05-20T16:36:57.234Z,24.73
2019-05-20T16:42:02.759Z,20.47
2019-05-20T16:47:08.265Z,20.83
2019-05-20T16:52:14.144Z,20.03
2019-05-20T16:57:19.808Z,20.17
2019-05-20T17:02:25.342Z,21.70
2019-05-20T17:07:31.695Z,18.77
2019-05-20T17:12:37.881Z,16.80
2019-05-20T17:17:43.617Z,16.93
2019-05-20T17:22:50.225Z,16.13
2019-05-20T17:27:56.743Z,16.73
2019-05-20T17:33:02.244Z,18.70
2019-05-20T17:38:07.740Z,17.77
2019-05-20T17:43:13.189Z,18.33
2019-05-20T17:48:18.797Z,17.60
2019-05-20T17:53:24.422Z,18.50
2019-05-20T17:58:30.237Z,18.43
2019-05-20T18:03:35.881Z,19.00
2019-05-20T18:08:44.588Z,20.57
2019-05-20T18:13:50.249Z,19.40
2019-05-20T18:18:55.894Z,20.47
2019-05-20T18:24:01.648Z,19.17
2019-05-20T18:29:07.278Z,19.27
2019-05-20T18:34:12.960Z,18.53
2019-05-20T18:39:18.535Z,18.17
2019-05-20T18:44:24.231Z,18.87
2019-05-20T18:49:29.956Z,17.83
2019-05-20T18:54:35.516Z,18.60
2019-05-20T18:59:41.188Z,18.63
2019-05-20T19:04:46.647Z,18.37
2019-05-20T19:09:52.257Z,19.20
2019-05-20T19:14:57.862Z,20.87
2019-05-20T19:20:03.639Z,19.90
2019-05-20T19:25:09.118Z,20.87
2019-05-20T19:30:14.681Z,21.30
2019-05-20T19:35:20.329Z,20.90
2019-05-20T19:40:25.803Z,21.57
2019-05-20T19:45:31.328Z,20.70
2019-05-20T19:50:36.889Z,20.57
2019-05-20T19:55:42.426Z,20.60
2019-05-20T20:00:47.921Z,19.97
2019-05-20T20:05:53.356Z,19.23
2019-05-20T20:10:58.800Z,21.97
2019-05-20T20:16:04.330Z,21.33
2019-05-20T20:21:10.123Z,23.90
2019-05-20T20:26:15.643Z,26.77
2019-05-20T20:31:21.072Z,28.93
2019-05-20T20:36:26.492Z,30.63
2019-05-20T20:41:31.965Z,33.57
2019-05-20T20:46:40.388Z,33.00
2019-05-20T20:51:44.600Z,32.27
2019-05-20T20:56:50.132Z,35.03
2019-05-20T21:01:59.140Z,35.40
2019-05-20T21:07:02.943Z,31.63
2019-05-20T21:12:08.472Z,32.17
2019-05-20T21:17:13.908Z,30.07
2019-05-20T21:22:19.381Z,28.27
2019-05-20T21:27:24.855Z,26.23
2019-05-20T21:32:30.375Z,24.13
2019-05-20T21:37:36.039Z,23.33
2019-05-20T21:42:41.492Z,24.20
2019-05-20T21:47:46.975Z,24.90
2019-05-20T21:52:52.476Z,23.17
2019-05-20T21:57:58.004Z,26.60
2019-05-20T22:03:03.460Z,28.33
2019-05-20T22:08:10.664Z,26.50
2019-05-20T22:13:16.132Z,25.30
2019-05-20T22:18:21.632Z,25.30
2019-05-20T22:23:41.016Z,26.20
2019-05-20T22:28:46.867Z,25.13
2019-05-20T22:33:52.383Z,26.00
2019-05-20T22:38:57.828Z,26.20
2019-05-20T22:44:03.334Z,28.67
2019-05-20T22:49:08.918Z,29.70
2019-05-20T22:54:14.496Z,31.73
2019-05-20T22:59:20.132Z,36.00
2019-05-20T23:04:42.311Z,37.57
2019-05-20T23:09:47.734Z,37.97
2019-05-20T23:14:53.260Z,37.23
2019-05-20T23:19:58.702Z,38.77
2019-05-20T23:25:04.252Z,36.93
2019-05-20T23:30:09.720Z,34.83
2019-05-20T23:35:15.150Z,31.50
2019-05-20T23:40:20.603Z,27.07
2019-05-20T23:45:26.009Z,26.90
2019-05-20T23:50:31.514Z,26.33
2019-05-20T23:55:36.949Z,22.87
